Time;durP1;ratioP1;P1;durP2;ratioP2;P2;SDS_P1;SDS_P2;PMS_P1;PMS_P2;Temp;Humidity;BMP_temperature;BMP_pressure;BME280_temperature;BME280_humidity;BME280_pressure;Samples;Min_cycle;Max_cycle;Signal;HPM_P1;HPM_P2
2021/09/02 00:00:56;;;;;;;5.43;4.47;;;;;;;;;;4898029;29;20224;-84
2021/09/02 00:03:25;;;;;;;4.68;4.28;;;;;;;;;;4898102;29;20202;-82
2021/09/02 00:05:53;;;;;;;4.30;3.85;;;;;;;;;;4897407;29;20578;-83
2021/09/02 00:08:20;;;;;;;7.10;4.00;;;;;;;;;;4897647;29;20210;-84
2021/09/02 00:10:47;;;;;;;4.95;4.45;;;;;;;;;;4897446;29;20545;-83
2021/09/02 00:13:15;;;;;;;4.90;4.03;;;;;;;;;;4897571;29;20234;-82
2021/09/02 00:15:42;;;;;;;5.65;4.93;;;;;;;;;;4897795;29;20188;-85
2021/09/02 00:18:10;;;;;;;8.43;4.40;;;;;;;;;;4897393;29;20199;-84
2021/09/02 00:20:39;;;;;;;7.28;5.18;;;;;;;;;;4898063;29;20609;-83
2021/09/02 00:23:06;;;;;;;4.57;4.18;;;;;;;;;;4898495;29;20191;-84
2021/09/02 00:25:34;;;;;;;5.28;4.15;;;;;;;;;;4897970;29;20578;-84
2021/09/02 00:28:01;;;;;;;3.20;2.83;;;;;;;;;;4898357;29;20207;-85
2021/09/02 00:30:29;;;;;;;3.22;3.00;;;;;;;;;;4899718;29;20690;-83
2021/09/02 00:32:56;;;;;;;4.43;3.53;;;;;;;;;;4899862;29;20238;-84
2021/09/02 00:35:24;;;;;;;6.28;3.58;;;;;;;;;;4900775;29;20195;-85
2021/09/02 00:37:52;;;;;;;3.47;3.17;;;;;;;;;;4899409;29;20210;-84
2021/09/02 00:40:20;;;;;;;4.38;3.42;;;;;;;;;;4899742;29;20219;-84
2021/09/02 00:42:47;;;;;;;3.97;3.40;;;;;;;;;;4899689;29;20577;-83
2021/09/02 00:45:15;;;;;;;6.53;4.38;;;;;;;;;;4899420;29;20180;-84
2021/09/02 00:47:42;;;;;;;6.75;4.43;;;;;;;;;;4899860;29;20878;-83
2021/09/02 00:50:11;;;;;;;5.18;4.68;;;;;;;;;;4900579;29;20248;-84
2021/09/02 00:52:38;;;;;;;5.43;4.38;;;;;;;;;;4899969;29;20700;-83
2021/09/02 00:55:09;;;;;;;4.43;4.03;;;;;;;;;;4900166;29;20211;-84
2021/09/02 00:57:37;;;;;;;5.50;4.50;;;;;;;;;;4900109;29;20213;-83
2021/09/02 01:00:09;;;;;;;5.72;4.22;;;;;;;;;;4899742;29;20300;-83
2021/09/02 01:02:36;;;;;;;4.63;3.70;;;;;;;;;;4900214;29;20187;-84
2021/09/02 01:05:06;;;;;;;7.22;4.47;;;;;;;;;;4899511;29;20586;-84
2021/09/02 01:07:34;;;;;;;10.55;4.65;;;;;;;;;;4899580;29;20191;-84
2021/09/02 01:10:03;;;;;;;5.47;4.93;;;;;;;;;;4899258;29;20235;-84
2021/09/02 01:12:37;;;;;;;5.15;3.50;;;;;;;;;;4892337;29;20211;-84
2021/09/02 01:15:08;;;;;;;4.03;3.60;;;;;;;;;;4899899;29;20199;-84
2021/09/02 01:17:38;;;;;;;4.80;4.28;;;;;;;;;;4899566;29;20199;-85
2021/09/02 01:20:08;;;;;;;7.90;3.92;;;;;;;;;;4899970;29;20219;-84
2021/09/02 01:22:36;;;;;;;4.95;4.30;;;;;;;;;;4899912;29;20198;-83
2021/09/02 01:25:09;;;;;;;3.70;3.33;;;;;;;;;;4899785;29;20290;-84
2021/09/02 01:27:37;;;;;;;6.55;4.50;;;;;;;;;;4900200;29;20203;-84
2021/09/02 01:30:08;;;;;;;6.00;4.20;;;;;;;;;;4899997;29;20581;-85
2021/09/02 01:32:38;;;;;;;5.28;3.60;;;;;;;;;;4899795;29;20183;-84
2021/09/02 01:35:08;;;;;;;3.20;2.88;;;;;;;;;;4899722;29;20235;-84
2021/09/02 01:37:41;;;;;;;3.35;3.05;;;;;;;;;;4900237;29;20202;-85
2021/09/02 01:40:15;;;;;;;5.65;2.88;;;;;;;;;;4900010;29;20231;-85
2021/09/02 01:42:42;;;;;;;3.50;2.85;;;;;;;;;;4900041;29;20195;-84
2021/09/02 01:45:12;;;;;;;3.80;3.00;;;;;;;;;;4899977;29;20202;-84
2021/09/02 01:47:40;;;;;;;3.20;2.95;;;;;;;;;;4900914;29;20198;-85
2021/09/02 01:50:12;;;;;;;3.25;2.95;;;;;;;;;;4900582;29;20223;-84
2021/09/02 01:52:40;;;;;;;5.57;3.67;;;;;;;;;;4901275;29;20284;-84
2021/09/02 01:55:11;;;;;;;4.97;3.38;;;;;;;;;;4900693;29;20677;-84
2021/09/02 01:57:40;;;;;;;4.47;3.15;;;;;;;;;;4902798;29;20646;-85
2021/09/02 02:00:10;;;;;;;5.70;4.53;;;;;;;;;;4904292;29;20238;-84
2021/09/02 02:02:38;;;;;;;3.75;3.33;;;;;;;;;;4903549;29;20191;-85
2021/09/02 02:05:06;;;;;;;6.60;3.78;;;;;;;;;;4904460;29;20292;-84
2021/09/02 02:07:34;;;;;;;6.13;4.05;;;;;;;;;;4904642;29;20198;-85
2021/09/02 02:10:02;;;;;;;3.92;3.60;;;;;;;;;;4904001;29;20242;-84
2021/09/02 02:12:31;;;;;;;3.60;3.30;;;;;;;;;;4904372;29;20188;-84
2021/09/02 02:14:59;;;;;;;5.68;3.90;;;;;;;;;;4903873;29;20207;-85
2021/09/02 02:17:27;;;;;;;6.68;5.32;;;;;;;;;;4901034;29;20207;-84
2021/09/02 02:19:54;;;;;;;5.15;3.95;;;;;;;;;;4894122;29;20222;-83
2021/09/02 02:22:22;;;;;;;4.32;3.22;;;;;;;;;;4900665;29;20634;-83
2021/09/02 02:24:49;;;;;;;2.92;2.58;;;;;;;;;;4900810;29;20190;-83
2021/09/02 02:27:17;;;;;;;2.83;2.55;;;;;;;;;;4900818;29;20639;-83
2021/09/02 02:29:46;;;;;;;5.45;4.95;;;;;;;;;;4901377;29;20223;-84
2021/09/02 02:32:13;;;;;;;2.65;2.45;;;;;;;;;;4901648;29;20187;-83
2021/09/02 02:34:41;;;;;;;3.85;3.45;;;;;;;;;;4900682;29;20221;-83
2021/09/02 02:37:08;;;;;;;4.25;3.10;;;;;;;;;;4901158;29;20195;-82
2021/09/02 02:39:38;;;;;;;4.80;3.78;;;;;;;;;;4900012;29;20720;-82
2021/09/02 02:42:06;;;;;;;3.53;3.22;;;;;;;;;;4900732;29;20203;-83
2021/09/02 02:44:34;;;;;;;4.00;3.42;;;;;;;;;;4900591;29;20191;-83
2021/09/02 02:47:04;;;;;;;3.83;3.33;;;;;;;;;;4900253;29;20187;-82
2021/09/02 02:49:32;;;;;;;4.05;3.58;;;;;;;;;;4899004;29;20241;-83
2021/09/02 02:51:59;;;;;;;7.57;4.47;;;;;;;;;;4900359;29;20195;-83
2021/09/02 02:54:27;;;;;;;5.63;3.60;;;;;;;;;;4900639;29;20231;-83
2021/09/02 02:56:54;;;;;;;4.13;3.40;;;;;;;;;;4899881;29;20207;-83
2021/09/02 02:59:22;;;;;;;4.15;3.58;;;;;;;;;;4900115;29;20223;-83
2021/09/02 03:01:49;;;;;;;5.45;3.30;;;;;;;;;;4900472;29;20207;-83
2021/09/02 03:04:18;;;;;;;5.20;3.42;;;;;;;;;;4900342;29;20672;-83
2021/09/02 03:06:46;;;;;;;6.05;4.32;;;;;;;;;;4899612;29;20203;-84
2021/09/02 03:09:13;;;;;;;4.85;3.47;;;;;;;;;;4900011;29;20243;-83
2021/09/02 03:11:40;;;;;;;4.72;3.28;;;;;;;;;;4899980;29;20203;-82
2021/09/02 03:14:14;;;;;;;6.10;3.40;;;;;;;;;;4899967;29;20234;-83
2021/09/02 03:16:41;;;;;;;4.18;3.08;;;;;;;;;;4900032;29;20193;-83
2021/09/02 03:19:09;;;;;;;4.25;3.20;;;;;;;;;;4881055;29;20255;-84
2021/09/02 03:21:37;;;;;;;2.90;2.70;;;;;;;;;;4881011;29;20677;-84
2021/09/02 03:24:05;;;;;;;2.35;2.17;;;;;;;;;;4880861;29;20204;-83
2021/09/02 03:26:33;;;;;;;2.85;2.33;;;;;;;;;;4892719;29;20191;-84
2021/09/02 03:29:00;;;;;;;1.30;1.20;;;;;;;;;;4899662;29;20735;-83
2021/09/02 03:31:28;;;;;;;1.60;1.50;;;;;;;;;;4899677;29;20184;-81
2021/09/02 03:33:55;;;;;;;1.80;1.70;;;;;;;;;;4899703;29;20207;-82
2021/09/02 03:36:22;;;;;;;1.90;1.80;;;;;;;;;;4899448;29;20204;-82
2021/09/02 03:38:51;;;;;;;1.95;1.85;;;;;;;;;;4900213;29;20219;-83
2021/09/02 03:41:19;;;;;;;2.85;2.38;;;;;;;;;;4899890;29;20192;-83
2021/09/02 03:43:46;;;;;;;3.22;2.97;;;;;;;;;;4899567;29;20199;-83
2021/09/02 03:46:14;;;;;;;3.40;2.50;;;;;;;;;;4899920;29;20191;-82
2021/09/02 03:48:41;;;;;;;5.03;2.65;;;;;;;;;;4899518;29;20237;-82
2021/09/02 03:51:08;;;;;;;3.30;3.00;;;;;;;;;;4899968;29;20191;-83
2021/09/02 03:53:36;;;;;;;3.38;3.08;;;;;;;;;;4899700;29;20637;-83
2021/09/02 03:56:05;;;;;;;4.05;3.17;;;;;;;;;;4899445;29;20235;-83
2021/09/02 03:58:33;;;;;;;5.00;3.38;;;;;;;;;;4899359;29;20190;-83
2021/09/02 04:01:00;;;;;;;4.43;2.92;;;;;;;;;;4899766;29;20187;-83
2021/09/02 04:03:27;;;;;;;3.58;3.28;;;;;;;;;;4899490;29;20206;-84
2021/09/02 04:05:55;;;;;;;3.42;3.08;;;;;;;;;;4899871;29;20191;-83
2021/09/02 04:08:22;;;;;;;3.92;3.33;;;;;;;;;;4899243;29;20195;-83
2021/09/02 04:10:50;;;;;;;3.50;2.95;;;;;;;;;;4905685;23;20231;-86
2021/09/02 04:13:19;;;;;;;4.78;3.85;;;;;;;;;;4880313;29;20204;-86
2021/09/02 04:15:46;;;;;;;3.97;2.85;;;;;;;;;;4880072;29;20232;-85
2021/09/02 04:18:13;;;;;;;4.03;3.63;;;;;;;;;;4881354;29;20644;-86
2021/09/02 04:20:41;;;;;;;3.22;2.70;;;;;;;;;;4877710;29;20236;-85
2021/09/02 04:23:08;;;;;;;4.78;2.78;;;;;;;;;;4879240;29;20211;-84
2021/09/02 04:25:36;;;;;;;3.35;2.60;;;;;;;;;;4879671;29;20571;-85
2021/09/02 04:28:04;;;;;;;2.15;2.05;;;;;;;;;;4878614;29;20192;-85
2021/09/02 04:30:33;;;;;;;2.35;2.08;;;;;;;;;;4878527;29;20232;-86
2021/09/02 04:33:01;;;;;;;1.65;1.55;;;;;;;;;;4878191;29;20669;-85
2021/09/02 04:35:30;;;;;;;2.33;1.90;;;;;;;;;;4878414;29;20212;-85
2021/09/02 04:37:57;;;;;;;1.75;1.65;;;;;;;;;;4878795;29;20755;-86
2021/09/02 04:40:25;;;;;;;4.22;2.70;;;;;;;;;;4880066;29;20601;-85
2021/09/02 04:42:53;;;;;;;4.85;3.15;;;;;;;;;;4878894;29;20188;-85
2021/09/02 04:45:20;;;;;;;2.97;2.53;;;;;;;;;;4878251;29;20215;-85
2021/09/02 04:47:51;;;;;;;3.65;3.22;;;;;;;;;;4878969;29;20223;-84
2021/09/02 04:50:20;;;;;;;4.28;2.60;;;;;;;;;;4881244;29;20235;-86
2021/09/02 04:52:47;;;;;;;4.07;2.75;;;;;;;;;;4867212;29;20200;-84
2021/09/02 04:55:15;;;;;;;1.95;1.73;;;;;;;;;;4880919;29;20922;-87
2021/09/02 04:57:43;;;;;;;1.98;1.85;;;;;;;;;;4882594;29;20626;-87
2021/09/02 05:00:12;;;;;;;1.73;1.63;;;;;;;;;;4876731;29;20669;-87
2021/09/02 05:02:40;;;;;;;1.63;1.52;;;;;;;;;;4863233;29;20185;-86
2021/09/02 05:05:09;;;;;;;1.52;1.42;;;;;;;;;;4863701;29;20189;-87
2021/09/02 05:07:36;;;;;;;1.67;1.58;;;;;;;;;;4863058;29;20208;-86
2021/09/02 05:10:09;;;;;;;1.70;1.60;;;;;;;;;;4862533;29;20281;-86
2021/09/02 05:12:36;;;;;;;1.60;1.50;;;;;;;;;;4880832;29;20188;-87
2021/09/02 05:15:05;;;;;;;1.73;1.60;;;;;;;;;;4880582;29;20231;-87
2021/09/02 05:17:33;;;;;;;1.90;1.70;;;;;;;;;;4880928;29;20196;-86
2021/09/02 05:20:00;;;;;;;3.20;2.90;;;;;;;;;;4879476;29;20234;-86
2021/09/02 05:22:29;;;;;;;3.05;2.85;;;;;;;;;;4880304;29;20204;-85
2021/09/02 05:24:57;;;;;;;3.28;2.97;;;;;;;;;;4881019;29;20199;-87
2021/09/02 05:27:24;;;;;;;3.58;2.97;;;;;;;;;;4880432;29;20188;-86
2021/09/02 05:29:52;;;;;;;2.00;1.80;;;;;;;;;;4880393;29;20229;-87
2021/09/02 05:32:19;;;;;;;3.15;2.20;;;;;;;;;;4874209;29;20203;-85
2021/09/02 05:34:46;;;;;;;3.03;2.40;;;;;;;;;;4877915;29;20204;-86
2021/09/02 05:37:14;;;;;;;2.20;1.98;;;;;;;;;;4863533;29;20211;-87
2021/09/02 05:39:43;;;;;;;2.60;2.40;;;;;;;;;;4861792;29;20238;-88
2021/09/02 05:42:11;;;;;;;4.80;3.97;;;;;;;;;;4860831;29;20585;-84
2021/09/02 05:44:39;;;;;;;10.60;5.15;;;;;;;;;;4875694;29;20564;-87
2021/09/02 05:47:06;;;;;;;5.40;4.50;;;;;;;;;;4878625;29;20975;-84
2021/09/02 05:49:34;;;;;;;5.32;4.22;;;;;;;;;;4871226;29;20231;-87
2021/09/02 05:52:01;;;;;;;4.05;3.70;;;;;;;;;;4860886;29;20204;-88
2021/09/02 05:54:29;;;;;;;5.95;4.22;;;;;;;;;;4866257;29;20212;-85
2021/09/02 05:56:58;;;;;;;4.00;3.58;;;;;;;;;;4865030;29;20216;-87
2021/09/02 05:59:25;;;;;;;3.65;3.33;;;;;;;;;;4872675;29;20711;-87
2021/09/02 06:01:53;;;;;;;3.20;2.75;;;;;;;;;;4879685;29;20218;-88
2021/09/02 06:04:20;;;;;;;2.58;2.28;;;;;;;;;;4880021;29;20198;-87
2021/09/02 06:06:48;;;;;;;4.25;3.53;;;;;;;;;;4871396;29;20189;-88
2021/09/02 06:09:15;;;;;;;4.20;3.80;;;;;;;;;;4871316;29;20243;-87
2021/09/02 06:11:42;;;;;;;5.30;4.80;;;;;;;;;;4876586;29;20207;-87
2021/09/02 06:14:12;;;;;;;7.70;5.70;;;;;;;;;;4867132;29;20201;-87
2021/09/02 06:16:39;;;;;;;7.72;6.93;;;;;;;;;;4877677;29;20212;-84
2021/09/02 06:19:07;;;;;;;8.15;7.00;;;;;;;;;;4871414;29;20226;-87
2021/09/02 06:21:34;;;;;;;10.35;6.82;;;;;;;;;;4879295;29;20195;-87
2021/09/02 06:24:02;;;;;;;8.40;6.97;;;;;;;;;;4879393;29;20180;-87
2021/09/02 06:26:29;;;;;;;8.45;7.55;;;;;;;;;;4877258;29;20200;-88
2021/09/02 06:28:57;;;;;;;9.90;7.78;;;;;;;;;;4866510;29;20212;-88
2021/09/02 06:31:25;;;;;;;8.35;6.82;;;;;;;;;;4866733;29;20299;-87
2021/09/02 06:33:53;;;;;;;9.18;6.88;;;;;;;;;;4869159;29;20204;-87
2021/09/02 06:36:20;;;;;;;9.50;6.88;;;;;;;;;;4878227;29;20227;-87
2021/09/02 06:38:48;;;;;;;9.43;6.85;;;;;;;;;;4862629;29;20188;-86
2021/09/02 06:41:15;;;;;;;8.07;6.57;;;;;;;;;;4864933;29;20215;-88
2021/09/02 06:43:43;;;;;;;8.13;6.15;;;;;;;;;;4862000;29;20693;-87
2021/09/02 06:46:11;;;;;;;8.82;7.32;;;;;;;;;;4863169;29;20211;-87
2021/09/02 06:48:39;;;;;;;9.20;7.47;;;;;;;;;;4863596;29;20291;-86
2021/09/02 06:51:07;;;;;;;8.57;6.53;;;;;;;;;;4863784;29;20189;-87
2021/09/02 06:53:34;;;;;;;7.10;6.22;;;;;;;;;;4866006;29;20208;-86
2021/09/02 06:56:02;;;;;;;8.57;7.20;;;;;;;;;;4874264;29;20223;-88
2021/09/02 06:58:29;;;;;;;8.32;6.50;;;;;;;;;;4880082;29;20207;-87
2021/09/02 07:00:57;;;;;;;5.13;4.72;;;;;;;;;;4868887;29;20267;-87
2021/09/02 07:03:24;;;;;;;5.68;5.18;;;;;;;;;;4862866;29;20583;-86
2021/09/02 07:05:53;;;;;;;9.32;6.75;;;;;;;;;;4862330;29;20212;-88
2021/09/02 07:08:20;;;;;;;9.30;6.93;;;;;;;;;;4877458;29;20655;-85
2021/09/02 07:10:48;;;;;;;11.05;8.13;;;;;;;;;;4871875;29;20246;-87
2021/09/02 07:13:15;;;;;;;13.88;8.20;;;;;;;;;;4862637;29;20193;-86
2021/09/02 07:15:43;;;;;;;6.20;5.25;;;;;;;;;;4862592;29;20220;-86
2021/09/02 07:18:10;;;;;;;6.32;4.80;;;;;;;;;;4862382;29;20213;-87
2021/09/02 07:20:38;;;;;;;5.40;4.68;;;;;;;;;;4867322;29;20223;-87
2021/09/02 07:23:07;;;;;;;4.90;4.40;;;;;;;;;;4880968;29;20219;-86
2021/09/02 07:25:34;;;;;;;9.13;5.95;;;;;;;;;;4880434;29;20211;-87
2021/09/02 07:28:01;;;;;;;5.32;4.60;;;;;;;;;;4880587;29;20184;-86
2021/09/02 07:30:29;;;;;;;5.07;4.43;;;;;;;;;;4877624;29;20224;-85
2021/09/02 07:32:57;;;;;;;6.63;5.93;;;;;;;;;;4880678;29;20214;-87
2021/09/02 07:35:25;;;;;;;6.78;6.07;;;;;;;;;;4880475;29;20302;-87
2021/09/02 07:37:52;;;;;;;11.00;6.90;;;;;;;;;;4880360;29;20233;-88
2021/09/02 07:40:21;;;;;;;5.50;5.00;;;;;;;;;;4879127;29;20311;-87
2021/09/02 07:42:49;;;;;;;8.23;6.78;;;;;;;;;;4881240;29;20192;-87
2021/09/02 07:45:16;;;;;;;6.25;5.63;;;;;;;;;;4880732;29;20196;-86
2021/09/02 07:47:44;;;;;;;7.65;6.45;;;;;;;;;;4878516;29;20677;-87
2021/09/02 07:50:12;;;;;;;4.25;3.85;;;;;;;;;;4879785;29;20230;-87
2021/09/02 07:52:40;;;;;;;5.88;5.07;;;;;;;;;;4880502;29;20191;-86
2021/09/02 07:55:10;;;;;;;8.45;6.53;;;;;;;;;;4865485;29;20210;-86
2021/09/02 07:57:43;;;;;;;6.65;5.68;;;;;;;;;;4880047;29;20208;-85
2021/09/02 08:00:12;;;;;;;7.40;6.32;;;;;;;;;;4874451;29;20245;-87
2021/09/02 08:02:39;;;;;;;5.22;4.57;;;;;;;;;;4878160;29;20191;-87
2021/09/02 08:05:09;;;;;;;7.25;6.57;;;;;;;;;;4861799;29;20560;-88
2021/09/02 08:07:48;;;;;;;5.90;5.30;;;;;;;;;;4862006;29;20189;-86
2021/09/02 08:10:18;;;;;;;4.95;4.28;;;;;;;;;;4861226;29;20244;-88
2021/09/02 08:12:48;;;;;;;4.47;3.80;;;;;;;;;;4861745;29;20189;-87
2021/09/02 08:15:17;;;;;;;3.78;3.47;;;;;;;;;;4861694;29;20203;-87
2021/09/02 08:17:46;;;;;;;3.45;3.15;;;;;;;;;;4865785;29;20299;-88
2021/09/02 08:20:15;;;;;;;4.88;4.43;;;;;;;;;;4878582;29;20223;-89
2021/09/02 08:22:43;;;;;;;5.10;4.68;;;;;;;;;;4861344;29;20199;-87
2021/09/02 08:25:12;;;;;;;5.55;4.45;;;;;;;;;;4861150;29;20727;-85
2021/09/02 08:27:41;;;;;;;6.80;5.13;;;;;;;;;;4875574;29;20207;-88
2021/09/02 08:30:12;;;;;;;7.75;6.30;;;;;;;;;;4860808;29;20951;-89
2021/09/02 08:32:42;;;;;;;7.38;6.65;;;;;;;;;;4861345;29;20189;-87
2021/09/02 08:35:10;;;;;;;5.18;4.68;;;;;;;;;;4861575;29;20288;-88
2021/09/02 08:37:37;;;;;;;9.45;6.97;;;;;;;;;;4864561;29;20226;-86
2021/09/02 08:40:07;;;;;;;9.13;7.28;;;;;;;;;;4867755;29;20228;-85
2021/09/02 08:42:34;;;;;;;5.57;4.97;;;;;;;;;;4861838;29;20201;-87
2021/09/02 08:45:02;;;;;;;5.32;4.07;;;;;;;;;;4874889;29;20211;-87
2021/09/02 08:47:31;;;;;;;5.13;4.63;;;;;;;;;;4879787;29;20191;-85
2021/09/02 08:49:58;;;;;;;5.32;4.82;;;;;;;;;;4879996;29;20596;-86
2021/09/02 08:52:29;;;;;;;7.75;6.05;;;;;;;;;;4879864;29;20196;-85
2021/09/02 08:54:57;;;;;;;6.38;5.53;;;;;;;;;;4880572;29;20203;-87
2021/09/02 08:57:25;;;;;;;8.32;7.50;;;;;;;;;;4879474;29;20231;-88
2021/09/02 08:59:52;;;;;;;7.50;5.40;;;;;;;;;;4879094;29;20228;-87
2021/09/02 09:02:28;;;;;;;9.80;8.52;;;;;;;;;;4878856;29;20647;-88
2021/09/02 09:05:03;;;;;;;11.85;7.68;;;;;;;;;;4879008;29;20569;-87
2021/09/02 09:07:32;;;;;;;9.38;8.20;;;;;;;;;;4879227;29;20199;-88
2021/09/02 09:09:59;;;;;;;9.80;8.23;;;;;;;;;;4878708;29;20240;-85
2021/09/02 09:12:35;;;;;;;8.70;6.93;;;;;;;;;;4878825;29;20199;-88
2021/09/02 09:15:04;;;;;;;7.70;6.78;;;;;;;;;;4878586;29;20635;-88
2021/09/02 09:17:32;;;;;;;11.35;7.57;;;;;;;;;;4878955;29;20212;-87
2021/09/02 09:20:01;;;;;;;9.32;8.18;;;;;;;;;;4878833;29;20249;-89
2021/09/02 09:22:30;;;;;;;9.45;7.32;;;;;;;;;;4879136;29;20219;-87
2021/09/02 09:25:01;;;;;;;11.55;7.28;;;;;;;;;;4879092;29;20199;-87
2021/09/02 09:27:37;;;;;;;9.15;7.03;;;;;;;;;;4878697;29;20718;-89
2021/09/02 09:30:17;;;;;;;7.78;7.05;;;;;;;;;;4878678;29;20241;-86
2021/09/02 09:32:47;;;;;;;10.13;8.20;;;;;;;;;;4878886;29;20191;-86
2021/09/02 09:35:19;;;;;;;9.27;8.27;;;;;;;;;;4878727;29;20207;-88
2021/09/02 09:37:48;;;;;;;8.07;7.07;;;;;;;;;;4878464;29;20234;-87
2021/09/02 09:40:22;;;;;;;9.93;8.23;;;;;;;;;;4878841;29;20230;-88
2021/09/02 09:43:05;;;;;;;11.68;7.82;;;;;;;;;;4878686;29;20191;-88
2021/09/02 09:45:42;;;;;;;11.05;7.97;;;;;;;;;;4878551;29;20203;-87
2021/09/02 09:48:36;;;;;;;5.72;5.20;;;;;;;;;;4878554;29;20198;-88
2021/09/02 09:51:15;;;;;;;6.68;6.05;;;;;;;;;;4878881;29;20235;-88
2021/09/02 09:53:45;;;;;;;5.55;5.05;;;;;;;;;;4878470;29;20184;-87
2021/09/02 09:56:16;;;;;;;8.13;7.18;;;;;;;;;;4878479;29;20180;-88
2021/09/02 09:58:46;;;;;;;9.52;8.07;;;;;;;;;;4878551;29;20211;-87
2021/09/02 10:01:14;;;;;;;8.32;7.22;;;;;;;;;;4878501;29;20731;-88
2021/09/02 10:03:43;;;;;;;8.27;6.53;;;;;;;;;;4878678;29;20188;-88
2021/09/02 10:06:14;;;;;;;7.60;6.38;;;;;;;;;;4878729;29;20188;-87
2021/09/02 10:08:44;;;;;;;8.63;6.38;;;;;;;;;;4878855;29;20192;-87
2021/09/02 10:11:14;;;;;;;7.22;5.68;;;;;;;;;;4908949;23;20238;-84
2021/09/02 10:13:43;;;;;;;5.03;4.53;;;;;;;;;;4895931;29;20274;-84
2021/09/02 10:16:11;;;;;;;6.03;5.45;;;;;;;;;;4876911;29;20234;-83
2021/09/02 10:18:43;;;;;;;5.45;4.90;;;;;;;;;;4885203;29;20230;-84
2021/09/02 10:21:14;;;;;;;5.50;5.00;;;;;;;;;;4881994;29;20238;-85
2021/09/02 10:23:42;;;;;;;6.05;4.22;;;;;;;;;;4898342;29;20187;-85
2021/09/02 10:26:33;;;;;;;3.70;3.40;;;;;;;;;;4898572;29;20199;-85
2021/09/02 10:29:01;;;;;;;4.88;4.40;;;;;;;;;;4898088;29;20642;-86
2021/09/02 10:31:29;;;;;;;4.68;4.10;;;;;;;;;;4890595;29;20187;-84
2021/09/02 10:33:56;;;;;;;6.40;5.72;;;;;;;;;;4898005;29;20661;-86
2021/09/02 10:36:43;;;;;;;7.75;6.25;;;;;;;;;;4897937;29;20222;-85
2021/09/02 10:39:11;;;;;;;6.45;4.85;;;;;;;;;;4898264;29;20297;-85
2021/09/02 10:41:48;;;;;;;6.20;5.60;;;;;;;;;;4898261;29;20193;-85
2021/09/02 10:44:18;;;;;;;6.97;5.65;;;;;;;;;;4898560;29;20195;-85
2021/09/02 10:46:47;;;;;;;6.70;6.03;;;;;;;;;;4897845;29;20195;-85
2021/09/02 10:49:17;;;;;;;5.38;4.90;;;;;;;;;;4896575;29;20260;-85
2021/09/02 10:51:48;;;;;;;5.53;4.97;;;;;;;;;;4879387;29;20195;-85
2021/09/02 10:54:19;;;;;;;6.35;5.75;;;;;;;;;;4879688;29;20195;-86
2021/09/02 10:57:09;;;;;;;5.10;4.57;;;;;;;;;;4878983;29;20212;-84
2021/09/02 10:59:48;;;;;;;4.20;3.90;;;;;;;;;;4874181;29;20227;-85
2021/09/02 11:02:44;;;;;;;5.20;4.70;;;;;;;;;;4879211;29;20195;-86
2021/09/02 11:05:15;;;;;;;6.38;5.35;;;;;;;;;;4878726;29;20207;-85
2021/09/02 11:07:47;;;;;;;5.03;4.25;;;;;;;;;;4879109;29;20286;-85
2021/09/02 11:10:18;;;;;;;6.03;5.53;;;;;;;;;;4878727;29;20236;-86
2021/09/02 11:12:47;;;;;;;5.80;5.30;;;;;;;;;;4879006;29;20192;-86
2021/09/02 11:15:23;;;;;;;5.28;4.80;;;;;;;;;;4878648;29;20199;-85
2021/09/02 11:17:56;;;;;;;5.97;5.38;;;;;;;;;;4879118;29;20280;-86
2021/09/02 11:20:27;;;;;;;8.02;6.53;;;;;;;;;;4878714;29;20240;-85
2021/09/02 11:23:10;;;;;;;6.55;5.38;;;;;;;;;;4878789;29;20257;-85
2021/09/02 11:25:44;;;;;;;6.97;5.57;;;;;;;;;;4878392;29;20214;-84
2021/09/02 11:28:12;;;;;;;4.28;3.88;;;;;;;;;;4878689;29;20202;-85
2021/09/02 11:30:40;;;;;;;5.88;4.90;;;;;;;;;;4878611;29;20234;-84
2021/09/02 11:33:08;;;;;;;4.57;3.72;;;;;;;;;;4878649;29;20184;-85
2021/09/02 11:35:37;;;;;;;4.05;3.47;;;;;;;;;;4878758;29;20208;-85
2021/09/02 11:38:05;;;;;;;5.20;4.43;;;;;;;;;;4879113;29;20195;-86
2021/09/02 11:40:37;;;;;;;6.18;5.57;;;;;;;;;;4878555;29;20236;-86
2021/09/02 11:43:16;;;;;;;5.70;5.10;;;;;;;;;;4877536;29;20216;-86
2021/09/02 11:45:51;;;;;;;5.07;4.50;;;;;;;;;;4877893;29;20184;-85
2021/09/02 11:48:18;;;;;;;4.18;3.78;;;;;;;;;;4878586;29;20324;-86
2021/09/02 11:50:58;;;;;;;4.50;4.10;;;;;;;;;;4878163;29;20231;-85
2021/09/02 11:53:28;;;;;;;3.38;2.85;;;;;;;;;;4878308;29;20196;-85
2021/09/02 11:56:11;;;;;;;3.47;3.17;;;;;;;;;;4878085;29;20196;-85
2021/09/02 11:58:39;;;;;;;3.25;2.80;;;;;;;;;;4878303;29;20287;-85
2021/09/02 12:01:07;;;;;;;3.47;2.13;;;;;;;;;;4878336;29;20239;-86
2021/09/02 12:03:35;;;;;;;3.60;3.30;;;;;;;;;;4878719;29;20298;-85
2021/09/02 12:06:03;;;;;;;4.68;3.85;;;;;;;;;;4878585;29;20204;-84
2021/09/02 12:08:34;;;;;;;4.65;4.07;;;;;;;;;;4877770;29;20196;-84
2021/09/02 12:11:06;;;;;;;3.90;3.53;;;;;;;;;;4878079;29;20864;-84
2021/09/02 12:13:37;;;;;;;3.55;3.25;;;;;;;;;;4878231;29;20215;-84
2021/09/02 12:16:07;;;;;;;2.47;2.30;;;;;;;;;;4877986;29;20196;-85
2021/09/02 12:18:36;;;;;;;3.58;3.28;;;;;;;;;;4878560;29;20199;-84
2021/09/02 12:21:09;;;;;;;3.28;3.08;;;;;;;;;;4878176;29;20232;-85
2021/09/02 12:23:45;;;;;;;4.07;3.65;;;;;;;;;;4878235;29;20565;-85
2021/09/02 12:26:15;;;;;;;4.60;4.20;;;;;;;;;;4877244;29;20192;-85
2021/09/02 12:28:45;;;;;;;4.35;3.60;;;;;;;;;;4877123;29;20204;-86
2021/09/02 12:31:20;;;;;;;3.33;3.13;;;;;;;;;;4877346;29;20310;-86
2021/09/02 12:34:08;;;;;;;4.00;3.40;;;;;;;;;;4877577;29;20191;-87
2021/09/02 12:36:38;;;;;;;4.25;3.78;;;;;;;;;;4877629;29;20573;-86
2021/09/02 12:39:21;;;;;;;4.38;3.97;;;;;;;;;;4877417;29;20627;-86
2021/09/02 12:41:53;;;;;;;3.25;2.95;;;;;;;;;;4876611;29;20580;-85
2021/09/02 12:44:27;;;;;;;5.10;3.50;;;;;;;;;;4876884;29;20670;-86
2021/09/02 12:46:59;;;;;;;3.75;3.40;;;;;;;;;;4876801;29;20196;-87
2021/09/02 12:49:30;;;;;;;3.50;3.20;;;;;;;;;;4877277;29;20226;-85
2021/09/02 12:52:06;;;;;;;3.47;3.17;;;;;;;;;;4877272;29;20520;-85
2021/09/02 12:55:07;;;;;;;3.30;3.10;;;;;;;;;;4877371;29;20204;-85
2021/09/02 12:57:37;;;;;;;4.15;3.25;;;;;;;;;;4877330;29;20635;-85
2021/09/02 13:00:09;;;;;;;4.72;3.40;;;;;;;;;;4877561;29;20233;-85
2021/09/02 13:02:36;;;;;;;4.43;3.05;;;;;;;;;;4885735;29;20700;-84
2021/09/02 13:05:05;;;;;;;3.20;2.90;;;;;;;;;;4895887;29;20242;-85
2021/09/02 13:07:32;;;;;;;2.15;2.05;;;;;;;;;;4890370;29;20204;-85
2021/09/02 13:10:01;;;;;;;3.42;3.13;;;;;;;;;;4876570;29;20244;-85
2021/09/02 13:12:28;;;;;;;2.63;2.42;;;;;;;;;;4876752;29;20214;-85
2021/09/02 13:14:57;;;;;;;3.00;2.80;;;;;;;;;;4876341;29;20208;-85
2021/09/02 13:17:24;;;;;;;3.17;2.97;;;;;;;;;;4876894;29;20199;-85
2021/09/02 13:19:52;;;;;;;3.20;2.78;;;;;;;;;;4881043;29;20245;-84
2021/09/02 13:22:19;;;;;;;2.53;2.33;;;;;;;;;;4895456;29;20203;-86
2021/09/02 13:24:47;;;;;;;2.75;2.55;;;;;;;;;;4894901;29;20210;-85
2021/09/02 13:27:14;;;;;;;3.47;2.60;;;;;;;;;;4894733;29;20638;-85
2021/09/02 13:29:42;;;;;;;2.08;1.92;;;;;;;;;;4895128;29;20229;-85
2021/09/02 13:32:10;;;;;;;2.08;1.98;;;;;;;;;;4895207;29;20194;-85
2021/09/02 13:34:38;;;;;;;2.60;2.13;;;;;;;;;;4894878;29;20195;-85
2021/09/02 13:37:05;;;;;;;2.35;2.15;;;;;;;;;;4894953;29;20203;-85
2021/09/02 13:39:33;;;;;;;2.35;2.15;;;;;;;;;;4895004;29;20223;-85
2021/09/02 13:42:00;;;;;;;2.20;2.00;;;;;;;;;;4895058;29;20192;-85
2021/09/02 13:44:28;;;;;;;1.92;1.83;;;;;;;;;;4879694;29;20705;-86
2021/09/02 13:46:55;;;;;;;2.00;1.90;;;;;;;;;;4876072;29;20663;-85
2021/09/02 13:49:24;;;;;;;2.08;1.88;;;;;;;;;;4876372;29;20610;-85
2021/09/02 13:51:54;;;;;;;2.40;2.20;;;;;;;;;;4876328;29;20579;-85
2021/09/02 13:54:23;;;;;;;2.08;1.90;;;;;;;;;;4879989;29;20188;-85
2021/09/02 13:56:51;;;;;;;2.13;2.03;;;;;;;;;;4880020;29;20827;-85
2021/09/02 13:59:18;;;;;;;2.67;2.42;;;;;;;;;;4880258;29;20208;-85
2021/09/02 14:01:46;;;;;;;3.20;1.95;;;;;;;;;;4880298;29;20222;-86
2021/09/02 14:04:13;;;;;;;2.42;2.17;;;;;;;;;;4880178;29;20199;-86
2021/09/02 14:06:42;;;;;;;2.00;1.90;;;;;;;;;;4879782;29;20203;-86
2021/09/02 14:09:09;;;;;;;2.08;1.88;;;;;;;;;;4879782;29;20566;-85
2021/09/02 14:11:37;;;;;;;2.13;2.03;;;;;;;;;;4880365;29;20724;-86
2021/09/02 14:14:04;;;;;;;2.08;1.85;;;;;;;;;;4880395;29;20217;-86
2021/09/02 14:16:32;;;;;;;2.25;2.13;;;;;;;;;;4879676;29;20654;-86
2021/09/02 14:18:59;;;;;;;2.80;2.55;;;;;;;;;;4879820;29;20301;-85
2021/09/02 14:21:29;;;;;;;2.58;2.38;;;;;;;;;;4879623;29;20216;-85
2021/09/02 14:23:58;;;;;;;2.17;2.08;;;;;;;;;;4879700;29;20604;-85
2021/09/02 14:26:25;;;;;;;2.30;2.10;;;;;;;;;;4879236;29;20211;-86
2021/09/02 14:28:54;;;;;;;1.88;1.77;;;;;;;;;;4862773;29;20208;-85
2021/09/02 14:31:24;;;;;;;2.13;2.03;;;;;;;;;;4879748;29;20280;-85
2021/09/02 14:33:51;;;;;;;2.30;2.17;;;;;;;;;;4879520;29;20654;-85
2021/09/02 14:36:18;;;;;;;2.70;2.50;;;;;;;;;;4879435;29;20203;-85
2021/09/02 14:38:46;;;;;;;2.67;2.20;;;;;;;;;;4879532;29;20192;-85
2021/09/02 14:41:16;;;;;;;2.20;2.00;;;;;;;;;;4879438;29;20239;-85
2021/09/02 14:43:44;;;;;;;3.30;2.40;;;;;;;;;;4879649;29;20196;-85
2021/09/02 14:46:11;;;;;;;3.50;2.30;;;;;;;;;;4879213;29;20192;-84
2021/09/02 14:48:38;;;;;;;2.08;1.90;;;;;;;;;;4879448;29;20208;-85
2021/09/02 14:51:06;;;;;;;2.08;1.98;;;;;;;;;;4879463;29;20219;-85
2021/09/02 14:53:33;;;;;;;2.22;2.13;;;;;;;;;;4879885;29;20192;-84
2021/09/02 14:56:01;;;;;;;2.55;2.35;;;;;;;;;;4878516;29;20211;-85